Time;durP1;ratioP1;P1;durP2;ratioP2;P2;SDS_P1;SDS_P2;PMS_P1;PMS_P2;Temp;Humidity;BMP_temperature;BMP_pressure;BME280_temperature;BME280_humidity;BME280_pressure;Samples;Min_cycle;Max_cycle;Signal;HPM_P1;HPM_P2
2022/12/29 00:01:29;;;;;;;8.10;5.20;;;9.90;99.90;;;;;;5086202;28;20067;-81
2022/12/29 00:03:55;;;;;;;6.38;5.50;;;10.00;99.90;;;;;;5088773;28;20463;-81
2022/12/29 00:06:21;;;;;;;5.60;5.00;;;10.00;99.90;;;;;;5087883;28;20043;-81
2022/12/29 00:08:46;;;;;;;6.25;4.95;;;10.00;99.90;;;;;;5070902;28;20737;-81
2022/12/29 00:11:15;;;;;;;6.03;5.43;;;10.00;99.90;;;;;;5070620;28;20480;-81
2022/12/29 00:16:25;;;;;;;7.82;5.45;;;10.10;99.90;;;;;;5088546;28;20085;-81
2022/12/29 00:18:51;;;;;;;6.00;5.18;;;10.10;99.90;;;;;;5088581;28;20067;-81
2022/12/29 00:35:15;;;;;;;6.45;5.38;;;10.20;99.90;;;;;;5088331;28;20048;-81
2022/12/29 00:45:56;;;;;;;6.18;5.00;;;10.20;99.90;;;;;;5087816;28;20052;-82
2022/12/29 00:51:07;;;;;;;5.35;4.85;;;10.20;99.90;;;;;;5087933;28;20044;-82
2022/12/29 00:53:34;;;;;;;7.22;4.65;;;10.20;99.90;;;;;;5070422;28;20055;-82
2022/12/29 00:55:59;;;;;;;5.68;4.70;;;10.20;99.90;;;;;;5071429;28;20079;-82
2022/12/29 00:58:29;;;;;;;5.50;4.65;;;10.20;99.90;;;;;;5087635;28;20479;-82
2022/12/29 01:01:21;;;;;;;5.85;4.95;;;10.20;99.90;;;;;;5100589;28;20044;-82
2022/12/29 01:03:46;;;;;;;5.03;4.43;;;10.30;99.90;;;;;;5066016;28;20053;-82
2022/12/29 01:06:12;;;;;;;5.53;4.72;;;10.20;99.90;;;;;;5089402;28;20048;-82
2022/12/29 01:08:38;;;;;;;5.50;5.00;;;10.20;99.90;;;;;;5088083;28;20069;-82
2022/12/29 01:11:06;;;;;;;5.15;4.65;;;10.30;99.90;;;;;;5069880;28;20048;-82
2022/12/29 01:13:32;;;;;;;6.13;4.68;;;10.30;99.90;;;;;;5087733;28;20036;-82
2022/12/29 01:15:58;;;;;;;7.43;4.50;;;10.30;99.90;;;;;;5071187;28;20047;-82
2022/12/29 01:18:25;;;;;;;5.15;4.65;;;10.30;99.90;;;;;;5069830;28;20062;-82
2022/12/29 01:20:51;;;;;;;4.82;4.32;;;10.30;99.90;;;;;;5086336;28;20500;-82
2022/12/29 01:23:17;;;;;;;6.18;4.40;;;10.30;99.90;;;;;;5088617;28;20060;-83
2022/12/29 01:25:43;;;;;;;6.13;4.10;;;10.30;99.90;;;;;;5087994;28;20970;-83
2022/12/29 01:28:08;;;;;;;4.57;3.85;;;10.40;99.90;;;;;;5085838;28;20043;-82
2022/12/29 01:30:35;;;;;;;5.20;4.07;;;10.40;99.90;;;;;;5069564;28;20052;-82
2022/12/29 01:33:01;;;;;;;4.47;4.03;;;10.40;99.90;;;;;;5088634;28;20040;-82
2022/12/29 01:35:26;;;;;;;4.18;3.75;;;10.40;99.90;;;;;;5102116;27;20047;-82
2022/12/29 01:37:52;;;;;;;6.18;4.07;;;10.40;99.90;;;;;;5088418;28;20044;-83
2022/12/29 01:40:18;;;;;;;5.70;3.90;;;10.40;99.90;;;;;;5068720;28;20042;-82
2022/12/29 01:42:44;;;;;;;4.78;4.18;;;10.40;99.90;;;;;;5085802;28;20047;-82
2022/12/29 01:45:09;;;;;;;4.65;3.47;;;10.40;99.90;;;;;;5088576;28;20130;-82
2022/12/29 01:47:44;;;;;;;5.22;4.20;;;10.40;99.90;;;;;;5087392;28;20054;-82
2022/12/29 01:50:12;;;;;;;4.28;3.85;;;10.50;99.90;;;;;;5086124;28;20036;-82
2022/12/29 01:52:46;;;;;;;5.10;3.95;;;10.50;99.90;;;;;;5068670;28;20087;-82
2022/12/29 01:55:12;;;;;;;3.85;3.42;;;10.50;99.90;;;;;;5088315;28;20036;-82
2022/12/29 01:57:42;;;;;;;5.40;4.10;;;10.50;99.90;;;;;;5087352;28;20040;-83
2022/12/29 02:00:11;;;;;;;5.63;3.65;;;10.50;99.90;;;;;;5069038;28;20089;-83
2022/12/29 02:02:37;;;;;;;4.90;3.42;;;10.50;99.90;;;;;;5086170;28;20044;-82
2022/12/29 02:05:11;;;;;;;3.88;3.45;;;10.50;99.90;;;;;;5069256;28;20050;-82
2022/12/29 02:07:38;;;;;;;4.35;3.33;;;10.50;99.90;;;;;;5069569;28;20051;-82
2022/12/29 02:10:04;;;;;;;4.10;3.45;;;10.60;99.90;;;;;;5085865;28;20564;-83
2022/12/29 02:12:30;;;;;;;3.83;3.10;;;10.60;99.90;;;;;;5087090;28;20062;-82
2022/12/29 02:14:59;;;;;;;3.38;3.08;;;10.50;99.90;;;;;;5093372;28;20039;-82
2022/12/29 02:17:46;;;;;;;3.58;3.10;;;10.50;99.90;;;;;;5095158;28;20044;-82
2022/12/29 02:20:12;;;;;;;3.90;2.85;;;10.60;99.90;;;;;;5093467;28;20035;-82
2022/12/29 02:22:44;;;;;;;4.40;3.03;;;10.50;99.90;;;;;;5090221;28;20127;-82
2022/12/29 02:25:29;;;;;;;4.85;3.00;;;10.50;99.90;;;;;;5076399;28;20040;-82
2022/12/29 02:28:27;;;;;;;3.33;2.70;;;10.60;99.90;;;;;;5076323;28;20051;-82
2022/12/29 02:31:22;;;;;;;4.78;2.80;;;10.60;99.90;;;;;;5074104;28;20048;-82
2022/12/29 02:34:07;;;;;;;5.93;2.80;;;10.60;99.90;;;;;;5100561;27;20056;-82
2022/12/29 02:36:47;;;;;;;2.50;2.30;;;10.60;99.90;;;;;;5073686;28;20097;-82
2022/12/29 02:39:37;;;;;;;4.43;2.63;;;10.60;99.90;;;;;;5094066;28;20166;-82
2022/12/29 02:42:10;;;;;;;4.18;2.95;;;10.60;99.90;;;;;;5073897;28;20504;-82
2022/12/29 02:45:00;;;;;;;5.03;2.88;;;10.60;99.90;;;;;;5073647;28;20051;-82
2022/12/29 02:47:56;;;;;;;3.17;2.47;;;10.50;99.90;;;;;;5076101;28;20126;-82
2022/12/29 02:50:36;;;;;;;5.07;2.40;;;10.50;99.90;;;;;;5084796;28;20055;-82
2022/12/29 02:53:09;;;;;;;4.40;2.63;;;10.50;99.90;;;;;;5093273;28;20052;-82
2022/12/29 02:55:35;;;;;;;4.43;2.70;;;10.50;99.90;;;;;;5091987;28;20056;-82
2022/12/29 02:58:22;;;;;;;4.63;2.75;;;10.40;99.90;;;;;;5094373;28;20040;-82
2022/12/29 03:01:01;;;;;;;4.03;2.83;;;10.40;99.90;;;;;;5092686;28;20044;-82
2022/12/29 03:04:10;;;;;;;3.85;2.63;;;10.40;99.90;;;;;;5092064;28;20039;-82
2022/12/29 03:06:57;;;;;;;4.30;2.70;;;10.30;99.90;;;;;;5088581;28;20130;-81
2022/12/29 03:09:35;;;;;;;3.78;2.50;;;10.30;99.90;;;;;;5071531;28;20036;-83
2022/12/29 03:12:12;;;;;;;3.33;2.40;;;10.30;99.90;;;;;;5094257;28;20040;-83
2022/12/29 03:17:48;;;;;;;3.30;2.38;;;10.30;99.90;;;;;;5104680;27;20419;-83
2022/12/29 03:20:26;;;;;;;2.63;2.10;;;10.30;99.90;;;;;;5054982;28;20051;-82
2022/12/29 03:22:56;;;;;;;2.70;1.98;;;10.20;99.90;;;;;;5056230;28;20044;-82
2022/12/29 03:25:30;;;;;;;3.03;2.33;;;10.30;99.90;;;;;;5072045;28;20044;-82
2022/12/29 03:28:08;;;;;;;2.42;2.10;;;10.30;99.90;;;;;;5069870;28;20712;-83
2022/12/29 03:30:37;;;;;;;4.13;2.35;;;10.30;99.90;;;;;;5072392;28;20052;-83
2022/12/29 03:33:07;;;;;;;3.60;2.30;;;10.30;99.90;;;;;;5071200;28;20087;-82
2022/12/29 03:35:36;;;;;;;3.55;2.47;;;10.40;99.90;;;;;;5089932;28;20035;-82
2022/12/29 03:38:23;;;;;;;4.93;2.80;;;10.40;99.90;;;;;;5089228;28;20083;-82
2022/12/29 03:40:54;;;;;;;3.28;2.50;;;10.40;99.90;;;;;;5072329;28;20044;-83
2022/12/29 03:43:20;;;;;;;4.90;2.67;;;10.40;99.90;;;;;;5088836;28;20089;-83
2022/12/29 03:45:46;;;;;;;3.05;2.60;;;10.40;99.90;;;;;;5090758;28;20028;-83
2022/12/29 03:48:11;;;;;;;4.28;2.20;;;10.40;99.90;;;;;;5088292;28;20044;-82
2022/12/29 03:50:37;;;;;;;4.85;2.47;;;10.40;99.90;;;;;;5051648;28;20299;-82
2022/12/29 03:53:03;;;;;;;3.92;2.22;;;10.40;99.90;;;;;;5055955;28;20052;-82
2022/12/29 03:55:29;;;;;;;4.00;2.10;;;10.40;99.90;;;;;;5089655;28;20123;-82
2022/12/29 03:57:54;;;;;;;5.20;2.10;;;10.40;99.90;;;;;;5089562;28;20123;-82
2022/12/29 04:00:20;;;;;;;3.58;1.70;;;10.40;99.90;;;;;;5090918;28;20047;-83
2022/12/29 04:02:46;;;;;;;4.97;1.83;;;10.50;99.90;;;;;;5088631;28;20123;-83
2022/12/29 04:05:12;;;;;;;3.75;2.25;;;10.50;99.90;;;;;;5089259;28;20081;-82
2022/12/29 04:07:37;;;;;;;3.40;1.55;;;10.50;99.90;;;;;;5068629;28;20048;-83
2022/12/29 04:10:03;;;;;;;3.30;1.60;;;10.50;99.90;;;;;;5089071;28;20044;-83
2022/12/29 04:12:29;;;;;;;3.72;1.42;;;10.50;99.90;;;;;;5091202;28;20455;-83
2022/12/29 04:14:54;;;;;;;3.22;1.40;;;10.60;99.90;;;;;;5071697;28;20055;-82
2022/12/29 04:17:20;;;;;;;6.55;2.22;;;10.60;99.90;;;;;;5103838;28;20059;-82
2022/12/29 04:19:46;;;;;;;2.85;1.40;;;10.60;99.90;;;;;;5070574;28;20065;-82
2022/12/29 04:22:12;;;;;;;4.32;1.60;;;10.60;99.90;;;;;;5089467;28;20047;-82
2022/12/29 04:24:37;;;;;;;4.05;1.40;;;10.60;99.90;;;;;;5070191;28;20119;-82
2022/12/29 04:27:03;;;;;;;3.85;1.42;;;10.50;99.90;;;;;;5070960;28;20131;-82
2022/12/29 04:29:29;;;;;;;2.70;1.33;;;10.60;99.90;;;;;;5089163;28;20082;-83
2022/12/29 04:31:54;;;;;;;2.35;1.20;;;10.50;99.90;;;;;;5070757;28;20158;-82
2022/12/29 04:34:20;;;;;;;2.80;1.30;;;10.50;99.90;;;;;;5089127;28;20044;-82
2022/12/29 04:36:47;;;;;;;4.25;1.50;;;10.50;99.90;;;;;;5087826;28;20491;-82
2022/12/29 04:39:12;;;;;;;3.13;1.10;;;10.50;99.90;;;;;;5104670;28;20036;-82
2022/12/29 04:41:38;;;;;;;3.63;1.40;;;10.50;99.90;;;;;;5069829;28;20122;-82
2022/12/29 04:44:03;;;;;;;2.03;1.20;;;10.50;99.90;;;;;;5070438;28;20051;-82
2022/12/29 04:46:29;;;;;;;2.72;1.15;;;10.50;99.90;;;;;;5069252;28;20056;-81
2022/12/29 04:48:55;;;;;;;2.65;1.27;;;10.50;99.90;;;;;;5089223;28;20048;-82
2022/12/29 04:51:20;;;;;;;2.03;1.00;;;10.50;99.90;;;;;;5087606;28;20048;-82
2022/12/29 04:53:46;;;;;;;4.55;1.73;;;10.50;99.90;;;;;;5087823;28;20077;-82
2022/12/29 04:56:12;;;;;;;1.67;1.10;;;10.40;99.90;;;;;;5089244;28;20040;-82
2022/12/29 04:58:37;;;;;;;3.65;1.20;;;10.40;99.90;;;;;;5103044;28;20105;-82
2022/12/29 05:01:03;;;;;;;3.85;1.20;;;10.50;99.90;;;;;;5070573;28;20055;-82
2022/12/29 05:03:28;;;;;;;4.18;1.27;;;10.40;99.90;;;;;;5087554;28;20056;-82
2022/12/29 05:05:55;;;;;;;4.82;1.70;;;10.40;99.90;;;;;;5088193;28;20059;-82
2022/12/29 05:08:21;;;;;;;7.20;1.30;;;10.40;99.90;;;;;;5087293;28;20384;-82
2022/12/29 05:10:49;;;;;;;3.20;1.30;;;10.40;99.90;;;;;;5070508;28;20040;-82
2022/12/29 05:13:15;;;;;;;2.63;1.30;;;10.40;99.90;;;;;;5087400;28;20449;-84
2022/12/29 05:15:40;;;;;;;4.88;1.63;;;10.40;99.90;;;;;;5088787;28;20043;-83
2022/12/29 05:18:06;;;;;;;5.90;1.50;;;10.40;99.90;;;;;;5087479;28;20162;-82
2022/12/29 05:20:31;;;;;;;3.22;1.40;;;10.40;99.90;;;;;;5087518;28;20403;-82
2022/12/29 05:22:57;;;;;;;4.32;1.23;;;10.40;99.90;;;;;;5087006;28;20553;-83
2022/12/29 05:25:23;;;;;;;4.80;1.20;;;10.40;99.90;;;;;;5070764;28;20047;-83
2022/12/29 05:27:48;;;;;;;5.00;1.85;;;10.40;99.90;;;;;;5086575;28;20036;-83
2022/12/29 05:30:14;;;;;;;3.50;1.50;;;10.40;99.90;;;;;;5070232;28;20383;-84
2022/12/29 05:32:39;;;;;;;3.78;1.30;;;10.40;99.90;;;;;;5087062;28;20044;-83
2022/12/29 05:35:06;;;;;;;4.38;1.40;;;10.40;99.90;;;;;;5070027;28;20416;-82
2022/12/29 05:37:31;;;;;;;4.53;1.20;;;10.40;99.90;;;;;;5087749;28;20353;-82
2022/12/29 05:39:59;;;;;;;3.80;1.30;;;10.40;99.90;;;;;;5069521;28;20123;-83
2022/12/29 05:42:24;;;;;;;6.63;1.40;;;10.40;99.90;;;;;;5069051;28;20416;-83
2022/12/29 05:44:53;;;;;;;4.15;1.58;;;10.40;99.90;;;;;;5086985;28;20044;-83
2022/12/29 05:47:19;;;;;;;5.55;1.27;;;10.30;99.90;;;;;;5067641;28;20151;-82
2022/12/29 05:49:44;;;;;;;2.72;1.38;;;10.30;99.90;;;;;;5087558;28;20491;-83
2022/12/29 05:52:10;;;;;;;4.43;1.58;;;10.30;99.90;;;;;;5068798;28;20102;-83
2022/12/29 05:54:36;;;;;;;2.55;1.33;;;10.30;99.90;;;;;;5086862;28;20123;-83
2022/12/29 05:57:01;;;;;;;5.95;1.65;;;10.30;99.90;;;;;;5068473;28;20440;-82
2022/12/29 05:59:27;;;;;;;4.90;1.60;;;10.30;99.90;;;;;;5103710;28;20082;-82
2022/12/29 06:01:53;;;;;;;4.47;1.65;;;10.20;99.90;;;;;;5086005;28;20051;-82
2022/12/29 06:04:18;;;;;;;4.75;1.30;;;10.30;99.90;;;;;;5088390;28;20040;-83
2022/12/29 06:06:44;;;;;;;5.53;1.50;;;10.30;99.90;;;;;;5068760;28;20209;-83
2022/12/29 06:09:10;;;;;;;5.88;1.60;;;10.30;99.90;;;;;;5088763;28;20047;-82
2022/12/29 06:11:37;;;;;;;4.68;1.65;;;10.30;99.90;;;;;;5084876;28;20463;-83
2022/12/29 06:14:02;;;;;;;4.88;1.30;;;10.30;99.90;;;;;;5070390;28;20051;-83
2022/12/29 06:16:28;;;;;;;6.07;1.63;;;10.30;99.90;;;;;;5086122;28;20032;-82
2022/12/29 06:18:54;;;;;;;4.65;1.67;;;10.30;99.90;;;;;;5087354;28;20105;-83
2022/12/29 06:21:19;;;;;;;4.72;1.30;;;10.30;99.90;;;;;;5068858;28;20404;-83
2022/12/29 06:23:45;;;;;;;6.78;1.67;;;10.30;99.90;;;;;;5065732;28;20029;-83
2022/12/29 06:26:11;;;;;;;6.07;1.50;;;10.30;99.90;;;;;;5070378;28;20040;-83
2022/12/29 06:28:36;;;;;;;7.05;1.60;;;10.30;99.90;;;;;;5087360;28;20044;-83
2022/12/29 06:31:02;;;;;;;5.55;1.38;;;10.30;99.90;;;;;;5067806;28;20044;-83
2022/12/29 06:33:29;;;;;;;5.07;1.52;;;10.30;99.90;;;;;;5087918;28;20036;-82
2022/12/29 06:35:54;;;;;;;4.95;1.63;;;10.20;99.90;;;;;;5069016;28;20081;-83
2022/12/29 06:38:20;;;;;;;6.40;1.67;;;10.30;99.90;;;;;;5086910;28;20115;-83
2022/12/29 06:40:45;;;;;;;5.30;1.52;;;10.30;99.90;;;;;;5087434;28;20040;-82
2022/12/29 06:43:11;;;;;;;8.93;1.80;;;10.20;99.90;;;;;;5067996;28;20519;-82
2022/12/29 06:45:40;;;;;;;8.07;1.70;;;10.20;99.90;;;;;;5068005;28;20433;-82
2022/12/29 06:48:07;;;;;;;9.02;2.10;;;10.20;99.90;;;;;;5087002;28;20040;-82
2022/12/29 06:50:32;;;;;;;7.88;2.10;;;10.30;99.90;;;;;;5067767;28;20663;-82
2022/12/29 06:52:58;;;;;;;9.60;2.25;;;10.20;99.90;;;;;;5085997;28;20052;-81
2022/12/29 06:55:23;;;;;;;10.80;2.40;;;10.20;99.90;;;;;;5087187;28;20032;-83
2022/12/29 06:57:49;;;;;;;9.13;2.22;;;10.20;99.90;;;;;;5086138;28;20036;-83
2022/12/29 07:00:15;;;;;;;8.60;2.42;;;10.20;99.90;;;;;;5088099;28;20055;-82
2022/12/29 07:02:41;;;;;;;10.30;2.63;;;10.20;99.90;;;;;;5089265;28;20036;-82
2022/12/29 07:05:08;;;;;;;16.92;2.67;;;10.20;99.90;;;;;;5091131;28;20402;-82
2022/12/29 07:07:34;;;;;;;10.70;2.20;;;10.10;99.90;;;;;;5071067;28;20048;-82
2022/12/29 07:09:59;;;;;;;12.75;2.83;;;10.00;99.90;;;;;;5072485;28;20716;-83
2022/12/29 07:12:25;;;;;;;13.35;2.55;;;10.10;99.90;;;;;;5089017;28;20554;-85
2022/12/29 07:14:51;;;;;;;10.18;2.28;;;10.10;99.90;;;;;;5088193;28;20044;-84
2022/12/29 07:17:16;;;;;;;10.93;2.60;;;10.10;99.90;;;;;;5067809;28;20129;-84
2022/12/29 07:19:42;;;;;;;11.55;2.35;;;10.00;99.90;;;;;;5071837;28;20557;-84
2022/12/29 07:22:09;;;;;;;12.00;2.50;;;10.10;99.90;;;;;;5072241;28;20044;-82
2022/12/29 07:24:35;;;;;;;11.63;2.20;;;10.00;99.90;;;;;;5089148;28;20061;-83
2022/12/29 07:27:01;;;;;;;8.90;2.00;;;10.00;99.90;;;;;;5089792;28;20058;-84
2022/12/29 07:29:27;;;;;;;10.63;2.25;;;10.00;99.90;;;;;;5070972;28;20551;-84
2022/12/29 07:31:53;;;;;;;14.65;2.58;;;10.00;99.90;;;;;;5088537;28;20122;-84
2022/12/29 07:34:19;;;;;;;8.60;2.28;;;10.00;99.90;;;;;;5071426;28;20135;-84
2022/12/29 07:36:45;;;;;;;13.00;3.22;;;10.00;99.90;;;;;;5069922;28;20557;-87
2022/12/29 07:39:11;;;;;;;9.73;1.63;;;10.00;99.90;;;;;;5069346;28;20403;-84
2022/12/29 07:41:37;;;;;;;9.25;2.67;;;9.90;99.90;;;;;;5070921;28;20073;-79
2022/12/29 07:44:03;;;;;;;11.80;2.40;;;10.00;99.90;;;;;;5087683;28;20048;-79
2022/12/29 07:46:29;;;;;;;9.18;2.08;;;10.00;99.90;;;;;;5071631;28;20052;-79
2022/12/29 07:48:55;;;;;;;8.07;2.17;;;10.00;99.90;;;;;;5069193;28;20568;-79
2022/12/29 07:51:21;;;;;;;10.40;2.35;;;10.00;99.90;;;;;;5105812;28;20048;-79
2022/12/29 07:53:47;;;;;;;10.68;2.60;;;9.90;99.90;;;;;;5070022;28;20452;-79
2022/12/29 07:56:13;;;;;;;10.13;2.17;;;10.00;99.90;;;;;;5071320;28;20447;-79
2022/12/29 07:58:41;;;;;;;7.65;2.00;;;10.00;99.90;;;;;;5067766;28;20052;-79
2022/12/29 08:01:07;;;;;;;7.57;1.92;;;9.90;99.90;;;;;;5087886;28;20040;-79
2022/12/29 08:03:33;;;;;;;6.65;1.83;;;10.00;99.90;;;;;;5106576;28;20512;-78
2022/12/29 08:05:58;;;;;;;10.32;2.60;;;10.00;99.90;;;;;;5070701;28;20059;-79
2022/12/29 08:08:26;;;;;;;5.40;2.10;;;9.90;99.90;;;;;;5070284;28;20048;-78
2022/12/29 08:10:52;;;;;;;7.55;2.20;;;9.90;99.90;;;;;;5063592;28;20043;-79
2022/12/29 08:13:18;;;;;;;8.70;2.30;;;9.90;99.90;;;;;;5070794;28;20382;-79
2022/12/29 08:15:45;;;;;;;8.82;2.28;;;9.90;99.90;;;;;;5068116;28;20040;-79
2022/12/29 08:18:10;;;;;;;6.68;2.45;;;9.90;99.90;;;;;;5073535;28;20069;-79
2022/12/29 08:20:36;;;;;;;9.48;2.50;;;9.90;99.90;;;;;;5089719;28;20044;-79
2022/12/29 08:23:02;;;;;;;8.70;2.08;;;9.80;99.90;;;;;;5070551;28;20118;-78
2022/12/29 08:25:28;;;;;;;8.95;2.35;;;9.80;99.90;;;;;;5089924;28;20039;-78
2022/12/29 08:27:54;;;;;;;7.72;2.13;;;9.80;99.90;;;;;;5069279;28;20395;-79
2022/12/29 08:30:19;;;;;;;10.35;2.33;;;9.80;99.90;;;;;;5086476;28;20036;-75
2022/12/29 08:32:45;;;;;;;10.30;2.10;;;9.80;99.90;;;;;;5086201;28;20104;-84
2022/12/29 08:35:12;;;;;;;9.30;2.33;;;9.80;99.90;;;;;;5088910;28;20044;-77
2022/12/29 08:37:38;;;;;;;8.38;1.65;;;9.80;99.90;;;;;;5069234;28;20052;-77
2022/12/29 08:40:05;;;;;;;9.25;2.33;;;9.70;99.90;;;;;;5085761;28;20039;-80
2022/12/29 08:42:31;;;;;;;8.82;1.85;;;9.80;99.90;;;;;;5100681;27;20032;-82
2022/12/29 08:44:58;;;;;;;8.50;2.03;;;9.80;99.90;;;;;;5070465;28;20044;-81
2022/12/29 08:47:24;;;;;;;9.50;1.90;;;9.80;99.90;;;;;;5071990;28;20097;-90
2022/12/29 08:49:49;;;;;;;8.30;2.30;;;9.80;99.90;;;;;;5086916;28;20040;-85
2022/12/29 08:52:15;;;;;;;9.95;2.17;;;9.80;99.90;;;;;;5068787;28;20048;-86
2022/12/29 08:54:40;;;;;;;7.97;2.67;;;9.80;99.90;;;;;;5070927;28;20477;-87
2022/12/29 08:57:06;;;;;;;6.85;1.92;;;9.80;99.90;;;;;;5089020;28;20491;-82
2022/12/29 08:59:32;;;;;;;8.68;2.03;;;9.80;99.90;;;;;;5070004;28;20047;-86
2022/12/29 09:01:57;;;;;;;8.55;1.85;;;9.80;99.90;;;;;;5083497;28;20085;-83
2022/12/29 09:04:23;;;;;;;12.77;3.15;;;9.70;99.90;;;;;;5088549;28;20502;-83
2022/12/29 09:06:49;;;;;;;8.77;2.25;;;9.80;99.90;;;;;;5069834;28;20040;-86
2022/12/29 09:09:15;;;;;;;10.95;2.40;;;9.80;99.90;;;;;;5070281;28;20442;-86
2022/12/29 09:11:41;;;;;;;7.45;2.22;;;9.80;99.90;;;;;;5081619;28;20167;-86
2022/12/29 09:14:07;;;;;;;7.47;2.05;;;9.80;99.90;;;;;;5087920;28;20039;-95
2022/12/29 09:16:33;;;;;;;7.63;2.05;;;9.80;99.90;;;;;;5071456;28;20035;-87
2022/12/29 09:18:59;;;;;;;7.63;1.90;;;9.80;99.90;;;;;;5086596;28;20090;-85
2022/12/29 09:21:25;;;;;;;9.85;2.08;;;9.80;99.90;;;;;;5069789;28;20044;-85
2022/12/29 09:23:51;;;;;;;9.45;2.22;;;9.80;99.90;;;;;;5088309;28;20040;-84
2022/12/29 09:26:16;;;;;;;7.15;1.90;;;9.90;99.90;;;;;;5087892;28;20063;-84
2022/12/29 09:28:44;;;;;;;6.18;2.13;;;9.90;99.90;;;;;;5069840;28;20040;-82
2022/12/29 09:31:09;;;;;;;;;;;9.90;99.90;;;;;;5103913;27;20048;-83
2022/12/29 09:33:35;;;;;;;9.32;2.03;;;9.90;99.90;;;;;;5086376;28;19920;-81
2022/12/29 09:36:02;;;;;;;7.50;1.95;;;9.90;99.90;;;;;;5088315;28;20063;-80
2022/12/29 09:38:28;;;;;;;8.73;2.22;;;9.90;99.90;;;;;;5070417;28;20052;-81
2022/12/29 09:41:06;;;;;;;8.48;2.33;;;9.90;99.90;;;;;;5088060;28;20028;-81
2022/12/29 09:43:41;;;;;;;10.40;2.00;;;9.90;99.90;;;;;;5069106;28;20051;-82
2022/12/29 09:46:15;;;;;;;10.43;2.25;;;9.90;99.90;;;;;;5065071;28;20055;-88
2022/12/29 09:48:47;;;;;;;14.60;2.70;;;9.90;99.90;;;;;;5066370;28;20101;-84
2022/12/29 09:51:16;;;;;;;8.63;2.42;;;9.90;99.90;;;;;;5070216;28;20067;-83
2022/12/29 09:54:02;;;;;;;10.32;2.55;;;9.90;99.90;;;;;;5067393;28;20040;-77
2022/12/29 09:56:27;;;;;;;9.13;2.22;;;9.90;99.90;;;;;;5083933;28;20484;-80
2022/12/29 09:59:15;;;;;;;11.50;2.50;;;9.90;99.90;;;;;;5088093;28;20047;-80
2022/12/29 10:01:59;;;;;;;12.05;2.50;;;9.90;99.90;;;;;;5070718;28;20550;-80
2022/12/29 10:04:28;;;;;;;9.80;2.03;;;9.90;99.90;;;;;;5069919;28;20432;-80
2022/12/29 10:07:10;;;;;;;11.13;2.42;;;9.90;99.90;;;;;;5069902;28;20053;-80
2022/12/29 10:09:55;;;;;;;7.95;2.03;;;10.00;99.90;;;;;;5086197;28;20055;-80
2022/12/29 10:12:36;;;;;;;10.95;2.50;;;10.00;99.90;;;;;;5070111;28;20052;-80
2022/12/29 10:15:12;;;;;;;13.23;2.60;;;10.00;99.90;;;;;;5085907;28;20387;-79
2022/12/29 10:17:50;;;;;;;10.80;2.00;;;10.10;99.90;;;;;;5085008;28;20390;-87
2022/12/29 10:20:24;;;;;;;9.13;1.90;;;10.10;99.90;;;;;;5062279;28;20583;-82
2022/12/29 10:22:50;;;;;;;11.73;2.70;;;10.10;99.90;;;;;;5066729;28;20210;-85
2022/12/29 10:25:22;;;;;;;11.23;2.40;;;10.10;99.90;;;;;;5064660;28;20139;-82
2022/12/29 10:27:50;;;;;;;10.35;2.08;;;10.20;99.90;;;;;;5083806;28;20055;-82
2022/12/29 10:30:16;;;;;;;10.13;2.17;;;10.10;99.90;;;;;;5078621;28;20051;-79
2022/12/29 10:32:48;;;;;;;9.07;2.05;;;10.20;99.90;;;;;;5063245;28;20044;-79
2022/12/29 10:35:16;;;;;;;10.68;1.95;;;10.20;99.90;;;;;;5058955;28;20044;-83
2022/12/29 10:38:04;;;;;;;9.73;2.58;;;10.20;99.90;;;;;;5088753;28;20066;-85
2022/12/29 10:40:29;;;;;;;9.88;2.17;;;10.20;99.90;;;;;;5089834;28;20044;-82
2022/12/29 10:42:57;;;;;;;7.72;2.10;;;10.20;99.90;;;;;;5089150;28;20044;-85
2022/12/29 10:45:28;;;;;;;10.23;2.10;;;10.20;99.90;;;;;;5067817;28;20056;-82
2022/12/29 10:48:06;;;;;;;10.90;2.85;;;10.20;99.90;;;;;;5069892;28;20052;-82
2022/12/29 10:50:32;;;;;;;11.18;2.22;;;10.20;99.90;;;;;;5067757;28;20607;-87
2022/12/29 10:53:04;;;;;;;12.23;2.55;;;10.20;99.90;;;;;;5091079;28;20044;-87
2022/12/29 10:55:36;;;;;;;8.88;2.30;;;10.10;99.90;;;;;;5091790;28;20036;-83
2022/12/29 10:58:10;;;;;;;13.07;2.85;;;10.20;99.90;;;;;;5069620;28;20036;-87
2022/12/29 11:00:35;;;;;;;9.45;2.40;;;10.10;99.90;;;;;;5067462;28;20048;-81
2022/12/29 11:03:30;;;;;;;10.38;2.63;;;10.10;99.90;;;;;;5082582;28;20043;-80
2022/12/29 11:06:02;;;;;;;8.23;1.95;;;10.10;99.90;;;;;;5068312;28;20367;-89
2022/12/29 11:08:35;;;;;;;9.00;2.00;;;10.10;99.90;;;;;;5073028;28;20051;-82
2022/12/29 11:11:06;;;;;;;14.80;2.60;;;10.00;99.90;;;;;;5085796;28;20036;-84
2022/12/29 11:13:56;;;;;;;9.38;2.25;;;10.00;99.90;;;;;;5085661;28;20530;-84
2022/12/29 11:16:31;;;;;;;7.60;2.60;;;10.00;99.90;;;;;;5075082;28;20083;-86
2022/12/29 11:18:57;;;;;;;11.52;2.50;;;10.00;99.90;;;;;;5090214;28;20179;-84
2022/12/29 11:21:39;;;;;;;11.05;2.55;;;9.90;99.90;;;;;;5091002;28;20039;-84
2022/12/29 11:24:18;;;;;;;9.63;2.28;;;9.90;99.90;;;;;;5088980;28;20043;-86
2022/12/29 11:26:44;;;;;;;8.85;2.35;;;9.80;99.90;;;;;;5070012;28;20491;-86
2022/12/29 11:29:19;;;;;;;12.00;2.70;;;9.80;99.90;;;;;;5087604;28;20090;-80
2022/12/29 11:31:54;;;;;;;10.68;2.40;;;9.80;99.90;;;;;;5080431;28;20129;-77
2022/12/29 11:34:26;;;;;;;13.15;2.50;;;9.80;99.90;;;;;;5085976;28;20115;-76
2022/12/29 11:37:00;;;;;;;7.55;2.28;;;9.80;99.90;;;;;;5096140;27;20083;-84
2022/12/29 11:39:33;;;;;;;9.32;2.38;;;9.80;99.90;;;;;;5068306;28;20048;-85
2022/12/29 11:42:02;;;;;;;10.30;2.42;;;9.80;99.90;;;;;;5084151;28;20036;-88
2022/12/29 11:44:36;;;;;;;10.15;2.90;;;9.80;99.90;;;;;;5070790;28;20040;-85
2022/12/29 11:47:02;;;;;;;8.80;2.30;;;9.80;99.90;;;;;;5074984;28;20055;-84
2022/12/29 11:49:28;;;;;;;10.20;2.58;;;9.80;99.90;;;;;;5057715;28;20056;-82
2022/12/29 11:51:56;;;;;;;10.20;2.67;;;9.80;99.90;;;;;;5086304;28;20044;-83
2022/12/29 11:54:25;;;;;;;7.32;2.35;;;9.80;99.90;;;;;;5089823;28;20052;-84
2022/12/29 11:56:52;;;;;;;8.80;2.10;;;9.80;99.90;;;;;;5101920;28;20081;-84
2022/12/29 11:59:27;;;;;;;8.15;2.30;;;9.80;99.90;;;;;;5067356;28;20043;-80
2022/12/29 12:01:53;;;;;;;11.25;2.25;;;9.80;99.90;;;;;;5081356;28;20090;-81
2022/12/29 12:04:23;;;;;;;9.20;2.20;;;9.80;99.90;;;;;;5057900;28;20079;-83
2022/12/29 12:06:55;;;;;;;8.60;2.40;;;9.80;99.90;;;;;;5087633;28;20055;-76
2022/12/29 12:09:49;;;;;;;12.25;2.28;;;9.90;99.90;;;;;;5068564;28;20036;-80
2022/12/29 12:12:30;;;;;;;11.52;2.78;;;9.90;99.90;;;;;;5070036;28;20055;-76
2022/12/29 12:14:59;;;;;;;8.68;2.10;;;9.90;99.90;;;;;;5068711;28;20064;-70
2022/12/29 12:17:43;;;;;;;8.75;2.38;;;9.90;99.90;;;;;;5068956;28;20051;-91
2022/12/29 12:20:35;;;;;;;11.77;2.38;;;10.00;99.90;;;;;;5065737;28;20051;-84
2022/12/29 12:23:30;;;;;;;10.35;2.75;;;10.00;99.90;;;;;;5063263;28;20139;-79
2022/12/29 12:26:19;;;;;;;9.63;2.35;;;10.00;99.90;;;;;;5090953;28;20040;-79
2022/12/29 12:28:53;;;;;;;8.63;2.35;;;10.00;99.90;;;;;;5070022;28;20064;-79
2022/12/29 12:31:55;;;;;;;11.60;2.63;;;10.00;99.90;;;;;;5088468;28;20040;-82
2022/12/29 12:34:29;;;;;;;9.02;2.40;;;10.00;99.90;;;;;;5033094;28;20499;-82
2022/12/29 12:37:27;;;;;;;13.27;3.50;;;9.90;99.90;;;;;;5090819;28;20040;-86
2022/12/29 12:39:52;;;;;;;9.88;2.53;;;9.90;99.90;;;;;;5091338;28;20040;-90
2022/12/29 12:42:36;;;;;;;10.27;2.83;;;10.00;99.90;;;;;;5073921;28;20757;-88
2022/12/29 12:45:20;;;;;;;14.05;3.65;;;10.00;99.90;;;;;;5089829;28;20036;-87
2022/12/29 12:48:13;;;;;;;11.48;2.83;;;10.10;99.90;;;;;;5084958;28;20064;-80
2022/12/29 12:50:45;;;;;;;14.10;3.25;;;10.10;99.90;;;;;;5049728;28;20056;-83
2022/12/29 12:53:19;;;;;;;11.98;3.08;;;10.20;99.90;;;;;;5090125;28;20402;-80
2022/12/29 12:55:54;;;;;;;11.68;3.10;;;10.20;99.90;;;;;;5087731;28;20055;-79
2022/12/29 12:58:29;;;;;;;10.30;3.03;;;10.20;99.90;;;;;;5084886;28;20085;-78
2022/12/29 13:01:15;;;;;;;14.15;2.90;;;10.20;99.90;;;;;;5087315;28;20044;-81
2022/12/29 13:04:03;;;;;;;9.95;2.55;;;10.20;99.90;;;;;;5098567;28;20491;-82
2022/12/29 13:06:50;;;;;;;12.20;2.65;;;10.20;99.90;;;;;;5062866;28;20048;-86
2022/12/29 13:09:18;;;;;;;;;;;10.20;99.90;;;;;;5087397;28;20083;-82
2022/12/29 13:12:29;;;;;;;13.73;2.85;;;10.20;99.90;;;;;;5080167;28;19928;-81
2022/12/29 13:15:23;;;;;;;11.65;3.17;;;10.20;99.90;;;;;;5065098;28;20052;-80
2022/12/29 13:18:01;;;;;;;12.48;3.20;;;10.10;99.90;;;;;;5077057;28;20522;-84
2022/12/29 13:20:42;;;;;;;12.55;2.90;;;10.10;99.90;;;;;;5086836;28;20067;-88
2022/12/29 13:23:17;;;;;;;13.80;4.07;;;10.10;99.90;;;;;;5084079;28;20043;-85
2022/12/29 13:25:55;;;;;;;14.30;2.92;;;10.10;99.90;;;;;;5064189;28;20514;-84
2022/12/29 13:28:53;;;;;;;11.60;2.80;;;10.10;99.90;;;;;;5068991;28;20048;-87
2022/12/29 13:31:45;;;;;;;14.25;3.00;;;10.00;99.90;;;;;;5084760;28;20059;-81
2022/12/29 13:34:39;;;;;;;13.90;2.97;;;10.00;99.90;;;;;;5085176;28;20069;-85
2022/12/29 13:37:15;;;;;;;13.88;3.20;;;10.00;99.90;;;;;;5082103;28;20553;-80